Low Mountain, Arizona
Current Conditions -  °F | °C
As of 9:53 PM on Wednesday 26 Nov 2014 (Local Time) from KGUP Reporting Station
Clear Clear  
Wind Chill: 26°   Ceiling: Unl
Heat Index: 26°   Visibility: 10mi
Dew Point:   Wind: 0mph
Humidity: 49%   Direction: NA
Pressure: 30.47"   Gusts: NA
Location:  36.1012°N, 109.584°W
Report Text: KGUP 270453Z AUTO 00000KT 10SM CLR M03/M13 A3047 RMK AO2 SLP329 T10331128
Loading
Personal Weather Stations






























Interactive Weather Map New forecast layout! Learn more

10-Day Weather Forecast

Advertisements
Track Severe Weather on mobile